Michelle C — 2CRW6 — position and weather

sailwx.info

Track history (hours):
 
Tides and Currents Weather Stations Pressure Air Temp Water Temp Dewpoint Dewpoint Depression Visibility Wind Speed Wind Dir Waves Ship Positions

Michelle C

Last reported at 2018-Mar-05 03:18 UTC. Time now 2018-Jun-23 19:15 UTC.
Position N 30°03' W 090°33'.
Warning: this ship's position is months out of date.

Length 138 m; draft 7.6 m.

Type: Cargo ship. MMSI: 235075245.

Date/timePositionNaut miles runAvg speedWind from/ knotsBaromVisibWave heightAir tempDewpointWater temp
2018-Mar-05 03:18N 30°03' W 090°33'0 0.0
2018-Mar-05 02:54N 30°03' W 090°33'2 0.1
2018-Mar-04 09:56N 30°03' W 090°31'0 0.0
2018-Mar-04 09:29N 30°03' W 090°31'0 0.0
2018-Mar-04 08:56N 30°03' W 090°31'0 0.0
2018-Mar-04 08:29N 30°03' W 090°31'0 0.0
2018-Mar-04 07:59N 30°03' W 090°31'0 0.0
2018-Mar-04 07:29N 30°03' W 090°31'0 0.0
2018-Mar-04 06:59N 30°03' W 090°31'0 0.0
2018-Mar-04 06:26N 30°03' W 090°31'0 0.0
2018-Mar-04 05:59N 30°03' W 090°31'0 0.0
2018-Mar-04 05:29N 30°03' W 090°31'0 0.0
2018-Mar-04 04:59N 30°03' W 090°31'9 0.5
2018-Mar-03 10:45N 29°57' W 090°23'  
2018-Feb-26 09:02N 09°35' W 079°49'112.1
2018-Feb-26 08:58N 09°34' W 079°49'612.1
2018-Feb-26 08:30N 09°30' W 079°53'611.6
2018-Feb-26 08:01N 09°24' W 079°55'5 9.5
2018-Feb-26 07:30N 09°20' W 079°55'3 5.4
2018-Feb-26 06:58N 09°17' W 079°55'0 0.7
2018-Feb-26 06:24N 09°16' W 079°55'0 0.6
2018-Feb-26 06:00N 09°16' W 079°55'1 2.9
2018-Feb-26 05:30N 09°14' W 079°55'  
Track history (hours):
 
Tides and Currents Weather Stations Pressure Air Temp Water Temp Dewpoint Dewpoint Depression Visibility Wind Speed Wind Dir Waves Ship Positions

Michelle C

Last reported at 2018-Mar-05 03:18 UTC. Time now 2018-Jun-23 19:15 UTC.
Position N 30°03' W 090°33'.
Warning: this ship's position is months out of date.

Length 138 m; draft 7.6 m.

Type: Cargo ship. MMSI: 235075245.

Date/timePositionNaut miles runAvg speedWind from/ knotsBaromVisibWave heightAir tempDewpointWater temp
2018-Mar-05 03:18N 30°03' W 090°33'0 0.0
2018-Mar-05 02:54N 30°03' W 090°33'2 0.1
2018-Mar-04 09:56N 30°03' W 090°31'0 0.0
2018-Mar-04 09:29N 30°03' W 090°31'0 0.0
2018-Mar-04 08:56N 30°03' W 090°31'0 0.0
2018-Mar-04 08:29N 30°03' W 090°31'0 0.0
2018-Mar-04 07:59N 30°03' W 090°31'0 0.0
2018-Mar-04 07:29N 30°03' W 090°31'0 0.0
2018-Mar-04 06:59N 30°03' W 090°31'0 0.0
2018-Mar-04 06:26N 30°03' W 090°31'0 0.0
2018-Mar-04 05:59N 30°03' W 090°31'0 0.0
2018-Mar-04 05:29N 30°03' W 090°31'0 0.0
2018-Mar-04 04:59N 30°03' W 090°31'9 0.5
2018-Mar-03 10:45N 29°57' W 090°23'  
2018-Feb-26 09:02N 09°35' W 079°49'112.1
2018-Feb-26 08:58N 09°34' W 079°49'612.1
2018-Feb-26 08:30N 09°30' W 079°53'611.6
2018-Feb-26 08:01N 09°24' W 079°55'5 9.5
2018-Feb-26 07:30N 09°20' W 079°55'3 5.4
2018-Feb-26 06:58N 09°17' W 079°55'0 0.7
2018-Feb-26 06:24N 09°16' W 079°55'0 0.6
2018-Feb-26 06:00N 09°16' W 079°55'1 2.9
2018-Feb-26 05:30N 09°14' W 079°55'  

Dump ship's entire track history